Time;durP1;ratioP1;P1;durP2;ratioP2;P2;SDS_P1;SDS_P2;PMS_P1;PMS_P2;Temp;Humidity;BMP_temperature;BMP_pressure;BME280_temperature;BME280_humidity;BME280_pressure;Samples;Min_cycle;Max_cycle;Signal;HPM_P1;HPM_P2
2022/03/15 00:02:06;;;;;;;13.83;9.90;;;5.10;99.90;;;;;;5115274;28;20180;-79
2022/03/15 00:04:31;;;;;;;15.57;9.43;;;4.90;99.90;;;;;;5096820;28;20554;-78
2022/03/15 00:06:58;;;;;;;12.00;9.07;;;4.90;99.90;;;;;;5115336;28;20603;-79
2022/03/15 00:09:24;;;;;;;15.37;7.87;;;4.90;99.90;;;;;;5108739;28;20178;-79
2022/03/15 00:11:52;;;;;;;11.47;7.20;;;4.90;99.90;;;;;;5094892;28;20839;-78
2022/03/15 00:14:18;;;;;;;13.27;7.63;;;4.80;99.90;;;;;;5094590;28;20967;-78
2022/03/15 00:16:43;;;;;;;12.90;8.57;;;4.80;99.90;;;;;;5094670;28;20407;-78
2022/03/15 00:19:09;;;;;;;10.43;7.90;;;4.90;99.90;;;;;;5094451;28;20191;-79
2022/03/15 00:21:35;;;;;;;21.93;11.60;;;5.10;99.90;;;;;;5094533;28;20624;-82
2022/03/15 00:24:00;;;;;;;16.77;9.30;;;5.50;99.90;;;;;;5103957;28;20299;-81
2022/03/15 00:26:28;;;;;;;8.00;6.27;;;5.50;99.90;;;;;;5114803;28;20841;-81
2022/03/15 00:28:53;;;;;;;12.53;7.97;;;4.90;99.90;;;;;;5114960;28;20163;-79
2022/03/15 00:31:19;;;;;;;13.33;9.07;;;5.00;99.90;;;;;;5114826;28;20504;-78
2022/03/15 00:33:45;;;;;;;21.80;10.97;;;5.20;99.90;;;;;;5114861;28;20172;-79
2022/03/15 00:36:14;;;;;;;24.70;10.77;;;5.30;99.90;;;;;;5114454;28;20660;-78
2022/03/15 00:38:42;;;;;;;38.13;10.60;;;5.20;99.90;;;;;;5114437;28;20485;-79
2022/03/15 00:41:09;;;;;;;22.77;10.60;;;5.30;99.90;;;;;;5114683;28;20798;-80
2022/03/15 00:43:35;;;;;;;25.90;10.83;;;5.30;99.90;;;;;;5114705;28;20454;-79
2022/03/15 00:46:01;;;;;;;36.13;12.30;;;5.30;99.90;;;;;;5096367;28;20422;-79
2022/03/15 00:48:27;;;;;;;35.83;13.07;;;5.30;99.90;;;;;;5114703;28;20481;-79
2022/03/15 00:50:53;;;;;;;53.70;11.47;;;5.50;99.90;;;;;;5124301;28;20470;-80
2022/03/15 00:53:18;;;;;;;42.20;12.80;;;5.50;99.90;;;;;;5114571;28;20216;-81
2022/03/15 00:55:47;;;;;;;61.47;14.63;;;5.50;99.90;;;;;;5114401;28;20215;-79
2022/03/15 00:58:13;;;;;;;48.50;12.27;;;5.20;99.90;;;;;;5114302;28;20175;-79
2022/03/15 01:00:44;;;;;;;43.87;12.00;;;5.30;99.90;;;;;;5114348;28;20422;-79
2022/03/15 01:03:10;;;;;;;34.43;12.00;;;5.70;99.90;;;;;;5114279;28;20929;-79
2022/03/15 01:05:35;;;;;;;56.53;13.70;;;5.40;99.90;;;;;;5113793;28;20439;-79
2022/03/15 01:08:01;;;;;;;34.50;12.60;;;5.40;99.90;;;;;;5114169;28;20660;-79
2022/03/15 01:10:27;;;;;;;38.13;13.70;;;;;;;;;;5114117;28;20171;-78
2022/03/15 01:12:55;;;;;;;25.00;13.50;;;5.60;99.90;;;;;;5114031;28;20209;-78
2022/03/15 01:15:24;;;;;;;62.73;15.50;;;5.20;99.90;;;;;;5114039;28;20470;-78
2022/03/15 01:17:50;;;;;;;50.20;15.87;;;5.60;99.90;;;;;;5095789;28;20872;-78
2022/03/15 01:20:15;;;;;;;46.77;16.80;;;5.50;99.90;;;;;;5113656;28;20505;-78
2022/03/15 01:22:41;;;;;;;45.47;14.83;;;5.60;99.90;;;;;;5113722;28;20232;-79
2022/03/15 01:25:07;;;;;;;39.57;16.40;;;5.80;99.90;;;;;;5113889;28;20572;-79
2022/03/15 01:27:34;;;;;;;50.10;16.70;;;5.80;99.90;;;;;;5113956;28;20240;-78
2022/03/15 01:30:00;;;;;;;54.10;14.83;;;5.80;99.90;;;;;;5095582;28;20919;-79
2022/03/15 01:32:26;;;;;;;35.70;14.07;;;5.60;99.90;;;;;;5113750;28;20460;-78
2022/03/15 01:34:52;;;;;;;32.80;13.97;;;6.20;99.90;;;;;;5113510;28;20412;-78
2022/03/15 01:37:17;;;;;;;21.93;13.27;;;5.70;99.90;;;;;;5113622;28;20167;-78
2022/03/15 01:39:43;;;;;;;26.10;14.60;;;5.70;99.90;;;;;;5113304;28;20492;-79
2022/03/15 01:42:09;;;;;;;29.83;14.00;;;5.80;99.90;;;;;;5113646;28;20174;-80
2022/03/15 01:44:35;;;;;;;19.20;14.70;;;5.80;99.90;;;;;;5113658;28;20172;-79
2022/03/15 01:47:00;;;;;;;28.10;15.40;;;5.80;99.90;;;;;;5113387;28;20910;-79
2022/03/15 01:49:26;;;;;;;27.03;15.90;;;6.20;99.90;;;;;;5113086;28;20168;-78
2022/03/15 01:51:52;;;;;;;26.80;15.50;;;;;;;;;;5113334;28;20941;-78
2022/03/15 01:54:20;;;;;;;24.63;14.13;;;6.10;99.90;;;;;;5113571;28;20535;-78
2022/03/15 01:56:46;;;;;;;32.83;18.57;;;5.40;99.90;;;;;;5112164;28;20410;-79
2022/03/15 01:59:14;;;;;;;34.40;20.20;;;6.10;99.90;;;;;;5113388;28;20419;-79
2022/03/15 02:01:41;;;;;;;28.20;17.80;;;6.20;99.90;;;;;;5113408;28;20564;-79
2022/03/15 02:04:07;;;;;;;40.83;20.87;;;6.10;99.90;;;;;;5112920;28;20430;-79
2022/03/15 02:06:38;;;;;;;36.20;19.70;;;6.20;99.90;;;;;;5113282;28;20418;-79
2022/03/15 02:09:08;;;;;;;33.50;20.20;;;6.30;99.90;;;;;;5113306;28;20413;-79
2022/03/15 02:11:34;;;;;;;38.07;21.43;;;5.90;99.90;;;;;;5113266;28;20420;-79
2022/03/15 02:14:00;;;;;;;34.80;20.17;;;7.00;99.90;;;;;;5113223;28;20424;-79
2022/03/15 02:16:28;;;;;;;31.77;20.07;;;6.10;99.90;;;;;;5113288;28;20403;-79
2022/03/15 02:18:55;;;;;;;38.77;21.03;;;6.00;99.90;;;;;;5112888;28;20173;-79
2022/03/15 02:21:21;;;;;;;30.20;19.90;;;6.10;99.90;;;;;;5113216;28;20412;-79
2022/03/15 02:23:47;;;;;;;43.20;23.30;;;6.00;99.90;;;;;;5112994;28;20841;-79
2022/03/15 02:26:13;;;;;;;36.30;20.90;;;6.10;99.90;;;;;;5113180;28;20412;-79
2022/03/15 02:28:39;;;;;;;38.87;20.17;;;6.20;99.90;;;;;;5094825;28;20724;-79
2022/03/15 02:31:04;;;;;;;39.80;21.93;;;5.80;99.90;;;;;;5095253;28;20510;-79
2022/03/15 02:33:30;;;;;;;42.57;23.97;;;6.30;99.90;;;;;;5092319;28;20214;-79
2022/03/15 02:35:55;;;;;;;44.63;23.47;;;6.30;99.90;;;;;;5092591;28;20212;-79
2022/03/15 02:38:21;;;;;;;44.07;24.43;;;6.10;99.90;;;;;;5074551;28;20176;-80
2022/03/15 02:40:47;;;;;;;42.57;26.00;;;6.20;99.90;;;;;;5092666;28;20163;-79
2022/03/15 02:43:15;;;;;;;44.90;26.67;;;6.30;99.90;;;;;;5092559;28;20177;-79
2022/03/15 02:45:42;;;;;;;46.70;26.10;;;6.70;99.90;;;;;;5092546;28;20234;-79
2022/03/15 02:48:08;;;;;;;43.80;24.00;;;6.30;99.90;;;;;;5092601;28;20422;-80
2022/03/15 02:50:33;;;;;;;40.90;24.13;;;6.30;99.90;;;;;;5093575;28;20418;-79
2022/03/15 02:52:59;;;;;;;46.70;23.97;;;6.20;99.90;;;;;;5096423;28;20215;-79
2022/03/15 02:55:25;;;;;;;38.20;21.37;;;6.40;99.90;;;;;;5078330;28;20244;-79
2022/03/15 02:57:50;;;;;;;38.07;23.20;;;6.10;99.90;;;;;;5096304;28;20178;-79
2022/03/15 03:00:22;;;;;;;38.40;21.20;;;6.30;99.90;;;;;;5096352;28;20446;-79
2022/03/15 03:02:50;;;;;;;33.00;18.87;;;6.30;99.90;;;;;;5096212;28;20174;-79
2022/03/15 03:05:16;;;;;;;34.27;19.77;;;6.90;99.90;;;;;;5095753;28;20510;-79
2022/03/15 03:07:42;;;;;;;31.43;19.43;;;6.20;99.90;;;;;;5096110;28;20524;-79
2022/03/15 03:10:08;;;;;;;32.77;17.43;;;6.20;99.90;;;;;;5096124;28;20626;-79
2022/03/15 03:12:34;;;;;;;37.37;20.07;;;6.30;99.90;;;;;;5096136;28;20494;-78
2022/03/15 03:15:02;;;;;;;32.00;17.63;;;6.10;99.90;;;;;;5096102;28;20409;-79
2022/03/15 03:17:28;;;;;;;35.67;18.67;;;6.20;99.90;;;;;;5096011;28;20165;-79
2022/03/15 03:19:54;;;;;;;36.10;17.07;;;6.00;99.90;;;;;;5095566;28;20510;-79
2022/03/15 03:22:19;;;;;;;31.17;17.70;;;6.10;99.90;;;;;;5095667;28;20524;-79
2022/03/15 03:24:45;;;;;;;26.00;15.77;;;6.10;99.90;;;;;;5095785;28;20279;-79
2022/03/15 03:27:13;;;;;;;27.30;14.97;;;6.00;99.90;;;;;;5095709;28;20180;-79
2022/03/15 03:29:40;;;;;;;32.07;17.60;;;6.10;99.90;;;;;;5095769;28;20299;-79
2022/03/15 03:32:06;;;;;;;24.83;14.27;;;5.90;99.90;;;;;;5095529;28;20466;-79
2022/03/15 03:34:32;;;;;;;22.80;15.33;;;5.90;99.90;;;;;;5095194;28;20419;-79
2022/03/15 03:36:57;;;;;;;21.40;13.90;;;6.70;99.90;;;;;;5095533;28;20495;-79
2022/03/15 03:39:23;;;;;;;19.80;12.93;;;5.80;99.90;;;;;;5095458;28;20668;-79
2022/03/15 03:41:52;;;;;;;24.77;15.77;;;5.80;99.90;;;;;;5095507;28;20184;-79
2022/03/15 03:44:17;;;;;;;27.27;15.43;;;5.70;99.90;;;;;;5095550;28;20498;-79
2022/03/15 03:46:43;;;;;;;23.27;14.20;;;5.90;99.90;;;;;;5095455;28;20977;-80
2022/03/15 03:49:08;;;;;;;27.07;16.67;;;5.80;99.90;;;;;;5095015;28;20175;-80
2022/03/15 03:51:34;;;;;;;32.43;17.27;;;5.80;99.90;;;;;;5077166;28;20170;-80
2022/03/15 03:53:59;;;;;;;30.53;15.90;;;5.70;99.90;;;;;;5095391;28;20183;-80
2022/03/15 03:56:25;;;;;;;38.30;15.67;;;5.40;99.90;;;;;;5095340;28;20180;-80
2022/03/15 03:58:50;;;;;;;28.80;14.23;;;5.70;99.90;;;;;;5095198;28;20187;-80
2022/03/15 04:01:16;;;;;;;41.60;16.33;;;;;;;;;;5094696;28;20197;-80
2022/03/15 04:03:42;;;;;;;31.10;14.97;;;5.50;99.90;;;;;;5094756;28;20633;-79
2022/03/15 04:06:09;;;;;;;35.37;14.20;;;5.60;99.90;;;;;;5094995;28;20422;-79
2022/03/15 04:08:35;;;;;;;35.43;12.80;;;;;;;;;;5095256;28;20912;-79
2022/03/15 04:11:00;;;;;;;38.93;13.07;;;5.40;99.90;;;;;;5094664;28;20467;-79
2022/03/15 04:13:26;;;;;;;24.53;12.47;;;;;;;;;;5094011;28;20472;-79
2022/03/15 04:15:53;;;;;;;28.20;12.83;;;5.30;99.90;;;;;;5093892;28;20161;-79
2022/03/15 04:18:18;;;;;;;22.83;14.17;;;5.20;99.90;;;;;;5094295;28;20406;-79
2022/03/15 04:20:44;;;;;;;20.80;12.13;;;5.30;99.90;;;;;;5094338;28;20410;-79
2022/03/15 04:23:10;;;;;;;28.40;13.57;;;;;;;;;;5094428;28;20582;-79
2022/03/15 04:25:36;;;;;;;26.70;13.20;;;5.10;99.90;;;;;;5094542;28;20251;-79
2022/03/15 04:28:02;;;;;;;42.87;15.10;;;;;;;;;;5094545;28;20433;-79
2022/03/15 04:30:28;;;;;;;31.13;13.10;;;;;;;;;;5094495;28;20899;-79
2022/03/15 04:32:54;;;;;;;35.03;13.53;;;;;;;;;;5094412;28;20465;-79
2022/03/15 04:35:21;;;;;;;45.83;15.00;;;;;;;;;;5094131;28;20435;-79
2022/03/15 04:37:47;;;;;;;48.73;14.00;;;;;;;;;;5094344;28;20845;-79
2022/03/15 04:40:13;;;;;;;29.90;12.60;;;;;;;;;;5076121;28;20929;-79
2022/03/15 04:42:39;;;;;;;36.83;13.50;;;;;;;;;;5094334;28;20429;-79
2022/03/15 04:45:05;;;;;;;30.30;12.17;;;;;;;;;;5094308;28;20419;-79
2022/03/15 04:47:31;;;;;;;33.03;13.07;;;;;;;;;;5094226;28;20406;-79
2022/03/15 04:49:57;;;;;;;23.77;13.70;;;;;;;;;;5093833;28;20808;-79
2022/03/15 04:52:23;;;;;;;22.07;13.10;;;;;;;;;;5093955;28;20470;-79
2022/03/15 04:54:49;;;;;;;27.53;12.57;;;;;;;;;;5094168;28;20407;-79
2022/03/15 04:57:15;;;;;;;20.47;13.63;;;;;;;;;;5094014;28;20429;-80
2022/03/15 04:59:41;;;;;;;39.60;13.80;;;;;;;;;;5094026;28;20407;-79
2022/03/15 05:02:07;;;;;;;34.20;14.20;;;;;;;;;;5093929;28;20411;-80
2022/03/15 05:04:32;;;;;;;27.13;13.20;;;4.80;99.90;;;;;;5093410;28;20823;-79
2022/03/15 05:06:58;;;;;;;26.80;11.50;;;4.80;99.90;;;;;;5093899;28;20423;-80
2022/03/15 05:09:24;;;;;;;35.80;15.07;;;4.80;99.90;;;;;;5093746;28;20172;-80
2022/03/15 05:11:52;;;;;;;30.27;13.67;;;;;;;;;;5093737;28;20212;-80
2022/03/15 05:14:18;;;;;;;30.67;13.53;;;;;;;;;;5092959;28;20166;-79
2022/03/15 05:16:44;;;;;;;37.97;16.33;;;;;;;;;;5093766;28;20749;-79
2022/03/15 05:19:13;;;;;;;53.03;14.23;;;;;;;;;;5093312;28;20410;-79
2022/03/15 05:21:40;;;;;;;43.43;12.90;;;;;;;;;;5093601;28;20422;-81
2022/03/15 05:24:06;;;;;;;23.40;11.87;;;4.90;99.90;;;;;;5093581;28;20438;-82
2022/03/15 05:26:31;;;;;;;31.37;13.83;;;5.00;99.90;;;;;;5093584;28;20422;-81
2022/03/15 05:28:57;;;;;;;26.67;14.10;;;5.00;99.90;;;;;;5093523;28;20172;-81
2022/03/15 05:31:24;;;;;;;50.07;18.07;;;;;;;;;;5093467;28;20176;-81
2022/03/15 05:33:49;;;;;;;32.50;16.80;;;4.90;99.90;;;;;;5093043;28;20185;-81
2022/03/15 05:36:15;;;;;;;49.13;15.40;;;5.00;99.90;;;;;;5093367;28;20410;-80
2022/03/15 05:38:41;;;;;;;33.17;16.00;;;;;;;;;;5093330;28;20174;-80
2022/03/15 05:41:10;;;;;;;33.63;14.80;;;;;;;;;;5093340;28;20533;-81
2022/03/15 05:43:37;;;;;;;42.93;14.87;;;;;;;;;;5075144;28;20414;-81
2022/03/15 05:46:03;;;;;;;35.43;14.13;;;;;;;;;;5075102;28;20434;-80
2022/03/15 05:48:29;;;;;;;38.80;15.20;;;;;;;;;;5092830;28;20536;-80
2022/03/15 05:50:55;;;;;;;32.17;14.37;;;;;;;;;;5093233;28;20914;-80
2022/03/15 05:53:21;;;;;;;33.77;14.37;;;;;;;;;;5101951;28;20487;-80
2022/03/15 05:55:47;;;;;;;49.37;13.80;;;;;;;;;;5093227;28;20414;-81
2022/03/15 05:58:14;;;;;;;25.20;12.70;;;;;;;;;;5075013;28;20478;-81
2022/03/15 06:00:42;;;;;;;34.90;13.33;;;;;;;;;;5093043;28;20406;-81
2022/03/15 06:03:08;;;;;;;28.13;12.30;;;;;;;;;;5092707;28;20406;-81
2022/03/15 06:05:34;;;;;;;30.73;12.57;;;;;;;;;;5093046;28;20406;-81
2022/03/15 06:08:00;;;;;;;32.03;13.90;;;;;;;;;;5092960;28;20410;-81
2022/03/15 06:10:28;;;;;;;37.17;15.23;;;;;;;;;;5093024;28;20411;-81
2022/03/15 06:12:54;;;;;;;35.90;14.50;;;;;;;;;;5092732;28;20539;-79
2022/03/15 06:15:21;;;;;;;24.00;13.80;;;;;;;;;;5092813;28;20410;-79
2022/03/15 06:17:56;;;;;;;28.80;13.73;;;;;;;;;;5093028;28;20411;-79
2022/03/15 06:20:25;;;;;;;31.27;14.10;;;;;;;;;;5092825;28;20414;-79
2022/03/15 06:22:52;;;;;;;25.90;15.57;;;4.80;99.90;;;;;;5092568;28;20486;-79
2022/03/15 06:25:17;;;;;;;32.60;15.53;;;4.70;99.90;;;;;;5095292;28;20418;-79
2022/03/15 06:27:43;;;;;;;29.60;13.67;;;4.70;99.90;;;;;;5096837;28;20469;-79
2022/03/15 06:30:11;;;;;;;40.70;13.37;;;4.90;99.90;;;;;;5096912;28;20925;-79
2022/03/15 06:32:36;;;;;;;31.43;13.70;;;4.70;99.90;;;;;;5096597;28;20208;-79
2022/03/15 06:35:06;;;;;;;23.40;12.13;;;4.60;99.90;;;;;;5096514;28;20761;-79
2022/03/15 06:37:31;;;;;;;43.27;13.83;;;4.40;99.90;;;;;;5096793;28;20161;-79
2022/03/15 06:39:57;;;;;;;23.53;12.30;;;4.40;99.90;;;;;;5096757;28;20418;-79
2022/03/15 06:42:22;;;;;;;26.50;13.13;;;4.50;99.90;;;;;;5096745;28;20285;-79
2022/03/15 06:44:48;;;;;;;25.23;12.53;;;4.40;99.90;;;;;;5096607;28;20176;-79
2022/03/15 06:47:14;;;;;;;27.00;13.07;;;4.60;99.90;;;;;;5096470;28;20200;-79
2022/03/15 06:49:39;;;;;;;22.57;13.33;;;4.50;99.90;;;;;;5095910;28;20514;-80
2022/03/15 06:52:10;;;;;;;21.07;12.90;;;4.60;99.90;;;;;;5096403;28;20207;-80
2022/03/15 06:54:35;;;;;;;21.00;11.50;;;4.70;99.90;;;;;;5096470;28;20519;-78
2022/03/15 06:57:01;;;;;;;24.40;10.90;;;4.70;99.90;;;;;;5096287;28;20479;-79
2022/03/15 06:59:27;;;;;;;28.00;12.57;;;4.80;99.90;;;;;;5096136;28;20174;-79
2022/03/15 07:01:52;;;;;;;35.33;12.83;;;4.80;99.90;;;;;;5096164;28;20176;-80
2022/03/15 07:04:18;;;;;;;23.40;11.03;;;4.90;99.90;;;;;;5095273;28;20539;-79
2022/03/15 07:06:44;;;;;;;21.63;12.53;;;4.90;99.90;;;;;;5096027;28;20418;-79
2022/03/15 07:09:10;;;;;;;22.57;12.53;;;5.00;99.90;;;;;;5083035;28;20175;-79
2022/03/15 07:11:36;;;;;;;16.20;10.10;;;5.00;99.90;;;;;;5106671;28;20497;-79
2022/03/15 07:14:03;;;;;;;16.70;10.47;;;4.60;99.90;;;;;;5104655;28;20507;-79
2022/03/15 07:16:31;;;;;;;15.03;10.33;;;4.70;99.90;;;;;;5105954;28;20156;-79
2022/03/15 07:18:59;;;;;;;23.67;13.13;;;4.70;99.90;;;;;;5106354;28;20414;-79
2022/03/15 07:21:24;;;;;;;21.23;13.63;;;4.90;99.90;;;;;;5105080;28;20403;-79
2022/03/15 07:23:50;;;;;;;23.67;12.50;;;4.90;99.90;;;;;;5105375;28;20452;-79
2022/03/15 07:26:16;;;;;;;21.57;12.87;;;5.00;99.90;;;;;;5106639;28;20176;-79
2022/03/15 07:28:41;;;;;;;24.73;14.20;;;5.10;99.90;;;;;;5104445;28;20637;-79
2022/03/15 07:31:07;;;;;;;26.00;14.40;;;5.30;99.90;;;;;;5106343;28;20645;-78
2022/03/15 07:33:33;;;;;;;23.90;13.43;;;5.20;99.90;;;;;;5106670;28;20204;-78
2022/03/15 07:35:59;;;;;;;20.63;13.50;;;5.30;99.90;;;;;;5106133;28;20192;-79
2022/03/15 07:38:26;;;;;;;29.97;13.37;;;5.30;99.90;;;;;;5105231;28;20226;-79
2022/03/15 07:40:52;;;;;;;29.40;12.57;;;5.30;99.90;;;;;;5104977;28;20431;-79
2022/03/15 07:43:19;;;;;;;17.43;12.97;;;5.40;99.90;;;;;;5107607;28;20417;-80
2022/03/15 07:45:45;;;;;;;21.73;12.57;;;5.30;99.90;;;;;;5106206;28;20414;-78
2022/03/15 07:48:11;;;;;;;19.10;14.23;;;5.50;99.90;;;;;;5104439;28;20472;-79
2022/03/15 07:50:36;;;;;;;21.53;11.77;;;5.40;99.90;;;;;;5104070;28;20185;-81
2022/03/15 07:53:02;;;;;;;28.63;14.13;;;5.30;99.90;;;;;;5103321;28;20208;-80
2022/03/15 07:55:28;;;;;;;18.97;13.57;;;5.30;99.90;;;;;;5104758;28;20194;-80
2022/03/15 07:57:53;;;;;;;24.30;13.93;;;5.40;99.90;;;;;;5104164;28;20498;-81
2022/03/15 08:00:19;;;;;;;18.60;12.80;;;5.40;99.90;;;;;;5087796;28;20175;-81
2022/03/15 08:02:45;;;;;;;21.20;12.90;;;5.50;99.90;;;;;;5088814;28;20180;-80
2022/03/15 08:05:10;;;;;;;18.20;11.90;;;5.80;99.90;;;;;;5106365;28;20179;-81
2022/03/15 08:07:36;;;;;;;22.77;13.20;;;6.00;99.90;;;;;;5106003;28;20255;-79
2022/03/15 08:10:10;;;;;;;16.80;11.97;;;5.70;99.90;;;;;;5104486;28;20414;-81
2022/03/15 08:12:37;;;;;;;20.33;12.50;;;5.80;99.90;;;;;;5104530;28;20472;-81
2022/03/15 08:15:04;;;;;;;20.43;14.20;;;6.00;99.90;;;;;;5106522;28;20922;-84
2022/03/15 08:17:30;;;;;;;21.70;13.93;;;6.10;99.90;;;;;;5103053;28;20417;-79
2022/03/15 08:19:57;;;;;;;29.93;16.30;;;6.30;99.90;;;;;;5106630;28;20504;-79
2022/03/15 08:22:25;;;;;;;28.60;15.63;;;6.30;99.90;;;;;;5107172;28;20221;-79
2022/03/15 08:24:50;;;;;;;24.20;16.40;;;6.20;99.90;;;;;;5102943;28;20399;-80
2022/03/15 08:27:16;;;;;;;21.50;14.00;;;6.40;99.90;;;;;;5104616;28;20426;-79
2022/03/15 08:29:43;;;;;;;23.27;14.23;;;6.10;99.90;;;;;;5102811;28;20170;-79
2022/03/15 08:32:09;;;;;;;23.97;13.47;;;6.10;99.90;;;;;;5093776;28;20209;-78
2022/03/15 08:34:34;;;;;;;18.60;13.40;;;6.10;99.90;;;;;;5094218;28;20495;-78
2022/03/15 08:37:00;;;;;;;19.87;13.77;;;6.20;99.90;;;;;;5094484;28;20443;-79
2022/03/15 08:39:26;;;;;;;20.87;13.30;;;6.30;99.90;;;;;;5094395;28;20228;-79
2022/03/15 08:41:52;;;;;;;23.30;13.90;;;6.40;99.90;;;;;;5094294;28;20233;-79
2022/03/15 08:44:19;;;;;;;23.77;14.43;;;6.50;99.90;;;;;;5094340;28;20377;-79
2022/03/15 08:46:47;;;;;;;24.60;12.80;;;6.40;99.90;;;;;;5075854;28;20429;-81
2022/03/15 08:49:13;;;;;;;22.90;13.67;;;6.50;99.90;;;;;;5084366;28;20431;-85
2022/03/15 08:51:39;;;;;;;24.50;13.70;;;6.40;99.90;;;;;;5091428;28;20776;-82
2022/03/15 08:54:05;;;;;;;18.53;12.30;;;6.50;99.90;;;;;;5113261;28;20413;-87
2022/03/15 08:56:31;;;;;;;17.67;12.10;;;6.80;99.90;;;;;;5112534;28;20169;-86
2022/03/15 08:58:57;;;;;;;16.47;12.50;;;7.00;99.90;;;;;;5095327;28;20214;-86
2022/03/15 09:01:22;;;;;;;17.87;11.57;;;7.20;99.90;;;;;;5113448;28;20497;-83
2022/03/15 09:03:48;;;;;;;15.87;9.90;;;7.40;99.90;;;;;;5089163;28;20186;-83
2022/03/15 09:06:14;;;;;;;13.33;9.60;;;7.50;99.90;;;;;;5102067;28;20190;-81
2022/03/15 09:08:39;;;;;;;15.70;10.07;;;7.50;99.90;;;;;;5102561;28;20177;-81
2022/03/15 09:11:05;;;;;;;12.80;9.93;;;7.40;99.90;;;;;;5099580;28;20193;-83
2022/03/15 09:13:31;;;;;;;14.17;9.67;;;7.40;99.90;;;;;;5108945;28;20667;-83
2022/03/15 09:15:57;;;;;;;13.20;9.87;;;7.20;99.90;;;;;;5089376;28;20177;-84
2022/03/15 09:18:26;;;;;;;19.23;11.70;;;7.50;99.90;;;;;;5106223;28;20474;-82
2022/03/15 09:20:52;;;;;;;16.73;10.90;;;7.90;99.90;;;;;;5105357;28;20167;-83
2022/03/15 09:23:18;;;;;;;13.60;10.60;;;8.10;99.90;;;;;;5105677;28;20474;-82
2022/03/15 09:25:43;;;;;;;13.97;9.87;;;8.00;99.90;;;;;;5116075;28;20166;-82
2022/03/15 09:28:10;;;;;;;17.03;12.33;;;7.70;99.90;;;;;;5104562;28;20435;-82
2022/03/15 09:30:37;;;;;;;16.07;11.10;;;8.00;99.90;;;;;;5104460;28;20188;-83
2022/03/15 09:33:03;;;;;;;13.60;11.47;;;8.00;99.90;;;;;;5103756;28;20473;-82
2022/03/15 09:35:29;;;;;;;12.30;10.57;;;8.10;99.90;;;;;;5108650;28;20420;-81
2022/03/15 09:37:54;;;;;;;12.57;10.40;;;8.20;99.90;;;;;;5095209;28;20417;-83
2022/03/15 09:40:25;;;;;;;17.23;10.27;;;7.90;99.90;;;;;;5114785;28;20916;-83
2022/03/15 09:43:00;;;;;;;16.07;11.30;;;8.20;99.90;;;;;;5112669;28;20426;-81
2022/03/15 09:45:31;;;;;;;12.17;10.83;;;8.30;99.90;;;;;;5123124;28;20425;-84
2022/03/15 09:47:59;;;;;;;15.70;10.50;;;8.40;99.90;;;;;;5122279;27;20406;-84
2022/03/15 09:50:25;;;;;;;13.10;10.27;;;8.60;99.90;;;;;;5114301;28;20410;-85
2022/03/15 09:52:56;;;;;;;12.80;9.03;;;8.80;99.00;;;;;;5096923;28;20529;-84
2022/03/15 09:55:25;;;;;;;14.73;9.90;;;9.00;99.90;;;;;;5114043;28;20406;-84
2022/03/15 09:57:52;;;;;;;14.23;9.10;;;9.10;30.10;;;;;;5128667;27;20448;-85
2022/03/15 10:00:18;;;;;;;12.77;8.73;;;9.00;1.00;;;;;;5103427;27;20477;-85
2022/03/15 10:02:44;;;;;;;15.13;9.53;;;8.90;15.40;;;;;;5133645;27;20410;-79
2022/03/15 10:05:11;;;;;;;14.07;9.23;;;8.90;99.30;;;;;;5133902;27;20955;-78
2022/03/15 10:07:43;;;;;;;12.13;9.47;;;8.80;10.30;;;;;;5133718;28;20918;-78
2022/03/15 10:10:15;;;;;;;14.33;8.90;;;8.60;1.00;;;;;;5133785;28;20773;-78
2022/03/15 10:12:41;;;;;;;13.60;9.40;;;8.60;99.90;;;;;;5133766;28;20458;-78
2022/03/15 10:15:22;;;;;;;11.40;8.43;;;8.70;70.50;;;;;;5133860;28;20432;-78
2022/03/15 10:17:53;;;;;;;15.53;9.40;;;8.80;99.90;;;;;;5133135;28;20398;-78
2022/03/15 10:20:23;;;;;;;10.93;8.83;;;9.10;2.30;;;;;;5133890;28;20412;-78
2022/03/15 10:22:54;;;;;;;12.57;8.47;;;9.10;1.00;;;;;;5133560;28;20453;-78
2022/03/15 10:25:21;;;;;;;16.47;8.57;;;9.20;1.00;;;;;;5133696;28;20413;-78
2022/03/15 10:27:56;;;;;;;12.73;8.47;;;9.40;1.00;;;;;;5133743;28;20406;-78
2022/03/15 10:30:23;;;;;;;11.30;8.83;;;9.40;1.00;;;;;;5133718;28;20405;-78
2022/03/15 10:32:50;;;;;;;12.97;10.20;;;9.20;1.00;;;;;;5114893;28;20906;-78
2022/03/15 10:35:27;;;;;;;11.37;9.47;;;9.50;1.00;;;;;;5133515;28;20405;-78
2022/03/15 10:37:54;;;;;;;14.57;8.50;;;9.40;27.40;;;;;;5133565;28;20747;-78
2022/03/15 10:40:34;;;;;;;13.60;9.70;;;9.60;4.10;;;;;;5133708;28;20410;-78
2022/03/15 10:43:20;;;;;;;9.83;8.30;;;9.60;1.00;;;;;;5133616;28;20412;-78
2022/03/15 10:45:57;;;;;;;13.00;9.60;;;9.80;42.60;;;;;;5133453;28;20407;-78
2022/03/15 10:48:30;;;;;;;12.47;8.33;;;9.80;1.60;;;;;;5133617;28;20438;-78
2022/03/15 10:51:04;;;;;;;10.37;8.80;;;9.90;1.00;;;;;;5132492;28;20421;-78
2022/03/15 10:53:42;;;;;;;13.17;9.57;;;9.90;4.80;;;;;;5133380;28;21049;-78
2022/03/15 10:56:22;;;;;;;13.90;8.70;;;9.90;1.00;;;;;;5133502;28;20415;-78
2022/03/15 10:58:55;;;;;;;12.13;9.13;;;10.10;1.00;;;;;;5133461;28;20925;-78
2022/03/15 11:01:25;;;;;;;15.07;9.70;;;10.30;1.00;;;;;;5133364;28;20401;-79
2022/03/15 11:04:03;;;;;;;14.57;9.17;;;10.50;1.00;;;;;;5114023;28;20492;-78
2022/03/15 11:06:32;;;;;;;11.80;8.97;;;10.30;1.00;;;;;;5133342;28;20415;-78
2022/03/15 11:08:59;;;;;;;14.17;9.20;;;10.50;1.00;;;;;;5133314;28;20404;-78
2022/03/15 11:11:26;;;;;;;13.53;9.77;;;10.50;1.00;;;;;;5134423;27;20407;-78
2022/03/15 11:14:02;;;;;;;17.43;11.20;;;10.70;1.00;;;;;;5136976;27;20975;-78
2022/03/15 11:16:31;;;;;;;12.47;9.40;;;10.50;1.00;;;;;;5137522;27;20405;-80
2022/03/15 11:18:59;;;;;;;17.30;10.23;;;10.70;1.00;;;;;;5136839;27;20470;-79
2022/03/15 11:21:26;;;;;;;14.33;10.77;;;10.70;1.00;;;;;;5137348;27;20763;-79
2022/03/15 11:23:59;;;;;;;12.03;8.67;;;11.00;1.00;;;;;;5137106;27;20484;-79
2022/03/15 11:26:29;;;;;;;13.80;8.97;;;11.20;1.00;;;;;;5137429;27;20815;-79
2022/03/15 11:28:58;;;;;;;18.33;10.20;;;11.00;99.90;;;;;;5117748;27;20479;-77
2022/03/15 11:31:24;;;;;;;16.43;9.67;;;10.90;1.00;;;;;;5137112;27;20422;-78
2022/03/15 11:33:51;;;;;;;10.20;8.30;;;11.00;1.00;;;;;;5136534;27;20549;-78
2022/03/15 11:36:19;;;;;;;13.23;9.97;;;10.90;99.90;;;;;;5137120;27;20490;-79
2022/03/15 11:38:44;;;;;;;12.50;8.80;;;11.40;1.00;;;;;;5136821;27;20442;-79
2022/03/15 11:41:10;;;;;;;15.63;10.33;;;11.90;99.90;;;;;;5136918;27;20914;-80
2022/03/15 11:44:07;;;;;;;11.73;8.50;;;11.70;99.90;;;;;;5136870;27;20174;-79
2022/03/15 11:47:05;;;;;;;15.83;8.00;;;11.70;1.00;;;;;;5136781;27;20409;-79
2022/03/15 11:49:59;;;;;;;9.63;7.97;;;12.10;99.90;;;;;;5136926;27;20424;-78
2022/03/15 11:52:46;;;;;;;13.27;7.83;;;12.00;1.00;;;;;;5136055;27;20482;-79
2022/03/15 11:55:28;;;;;;;8.70;7.80;;;12.20;1.00;;;;;;5136598;27;20416;-79
2022/03/15 11:58:03;;;;;;;11.30;8.40;;;12.20;5.50;;;;;;5136742;27;20460;-79
2022/03/15 12:00:45;;;;;;;11.73;9.97;;;12.40;1.00;;;;;;5136735;27;20761;-79
2022/03/15 12:03:15;;;;;;;11.17;9.10;;;12.70;99.90;;;;;;5135930;27;20483;-78
2022/03/15 12:05:52;;;;;;;12.60;7.70;;;13.00;99.90;;;;;;5136115;27;20411;-78
2022/03/15 12:08:21;;;;;;;11.17;9.13;;;13.40;99.90;;;;;;5136029;27;20418;-78
2022/03/15 12:10:56;;;;;;;11.20;8.90;;;13.40;1.00;;;;;;5135957;27;20962;-78
2022/03/15 12:13:45;;;;;;;11.90;9.17;;;13.70;99.90;;;;;;5135798;27;20553;-78
2022/03/15 12:16:15;;;;;;;15.63;9.53;;;13.60;99.90;;;;;;5135957;27;20403;-78
2022/03/15 12:18:48;;;;;;;12.90;8.70;;;13.90;99.90;;;;;;5135532;27;20771;-78
2022/03/15 12:21:14;;;;;;;12.17;8.70;;;14.20;99.90;;;;;;5135838;27;20396;-78
2022/03/15 12:23:48;;;;;;;11.60;9.30;;;13.90;1.00;;;;;;5135246;27;20462;-78
2022/03/15 12:26:26;;;;;;;11.77;8.90;;;13.70;97.60;;;;;;5117265;27;20410;-78
2022/03/15 12:29:12;;;;;;;16.57;10.47;;;13.40;1.00;;;;;;5135649;27;20413;-78
2022/03/15 12:31:46;;;;;;;11.27;9.27;;;12.90;1.00;;;;;;5135389;27;20428;-78
2022/03/15 12:34:17;;;;;;;14.17;10.33;;;13.30;54.60;;;;;;5135288;27;20430;-78
2022/03/15 12:37:01;;;;;;;12.23;8.23;;;13.90;1.00;;;;;;5135184;27;20805;-78
2022/03/15 12:39:29;;;;;;;11.60;8.83;;;13.70;99.90;;;;;;5135402;27;20410;-77
2022/03/15 12:42:13;;;;;;;12.60;8.67;;;13.40;99.90;;;;;;5134633;27;20544;-77
2022/03/15 12:44:48;;;;;;;16.83;11.20;;;13.60;1.00;;;;;;5135226;27;20462;-77
2022/03/15 12:47:19;;;;;;;12.90;10.03;;;14.00;1.00;;;;;;5134917;27;20454;-77
2022/03/15 12:50:16;;;;;;;18.40;11.60;;;13.90;1.00;;;;;;5135120;27;20421;-78
2022/03/15 12:52:45;;;;;;;16.57;11.40;;;13.40;81.70;;;;;;5135074;27;20467;-78
2022/03/15 12:55:25;;;;;;;23.47;13.10;;;13.90;99.90;;;;;;5105845;28;20427;-84
2022/03/15 12:57:59;;;;;;;13.60;10.20;;;14.30;1.00;;;;;;5123841;27;20426;-84